createdAt,value
2022-10-25T00:00:30.326Z,13.30
2022-10-25T00:02:58.260Z,13.30
2022-10-25T00:05:26.282Z,13.30
2022-10-25T00:07:54.289Z,13.30
2022-10-25T00:10:24.929Z,13.30
2022-10-25T00:12:53.845Z,13.20
2022-10-25T00:15:23.431Z,13.20
2022-10-25T00:17:51.754Z,13.20
2022-10-25T00:20:19.983Z,13.00
2022-10-25T00:22:48.184Z,13.20
2022-10-25T00:25:16.449Z,13.20
2022-10-25T00:27:44.534Z,13.10
2022-10-25T00:30:13.632Z,13.10
2022-10-25T00:32:42.947Z,13.20
2022-10-25T00:35:11.206Z,13.10
2022-10-25T00:37:39.250Z,13.10
2022-10-25T00:40:08.444Z,13.10
2022-10-25T00:42:36.389Z,13.10
2022-10-25T00:45:12.212Z,13.10
2022-10-25T00:47:52.672Z,13.00
2022-10-25T00:50:44.277Z,13.00
2022-10-25T00:53:15.901Z,13.00
2022-10-25T00:55:47.054Z,13.00
2022-10-25T00:58:18.241Z,13.00
2022-10-25T01:00:46.667Z,13.00
2022-10-25T01:03:17.520Z,13.00
2022-10-25T01:05:46.022Z,13.00
2022-10-25T01:08:14.805Z,13.00
2022-10-25T01:10:42.955Z,13.00
2022-10-25T01:13:11.068Z,13.00
2022-10-25T01:15:46.295Z,13.00
2022-10-25T01:18:19.518Z,13.00
2022-10-25T01:21:18.082Z,13.00
2022-10-25T01:24:02.580Z,12.90
2022-10-25T01:26:56.967Z,12.90
2022-10-25T01:29:44.791Z,12.90
2022-10-25T01:32:21.265Z,12.80
2022-10-25T01:34:55.454Z,12.90
2022-10-25T01:37:31.765Z,12.90
2022-10-25T01:40:06.244Z,12.90
2022-10-25T01:42:38.032Z,12.90
2022-10-25T01:45:11.617Z,12.90
2022-10-25T01:47:45.818Z,12.90
2022-10-25T01:50:17.637Z,12.90
2022-10-25T01:52:45.602Z,12.90
2022-10-25T01:55:15.168Z,12.90
2022-10-25T01:57:59.607Z,12.90
2022-10-25T02:00:28.051Z,12.90
2022-10-25T02:03:07.631Z,12.90
2022-10-25T02:05:45.589Z,12.90
2022-10-25T02:08:22.773Z,12.90
2022-10-25T02:10:54.629Z,12.90
2022-10-25T02:13:28.261Z,13.00
2022-10-25T02:16:02.423Z,13.00
2022-10-25T02:18:35.787Z,13.00
2022-10-25T02:21:06.239Z,13.00
2022-10-25T02:23:36.390Z,13.00
2022-10-25T02:26:07.183Z,13.00
2022-10-25T02:28:40.025Z,13.00
2022-10-25T02:31:09.743Z,13.00
2022-10-25T02:33:39.275Z,13.00
2022-10-25T02:36:09.284Z,13.10
2022-10-25T02:38:37.579Z,13.00
2022-10-25T02:41:06.715Z,13.00
2022-10-25T02:43:34.659Z,13.00
2022-10-25T02:46:08.717Z,13.10
2022-10-25T02:48:36.879Z,13.00
2022-10-25T02:51:06.815Z,13.10
2022-10-25T02:53:35.293Z,13.00
2022-10-25T02:56:04.963Z,13.00
2022-10-25T02:58:37.028Z,13.00
2022-10-25T03:01:06.232Z,13.00
2022-10-25T03:03:34.846Z,13.00
2022-10-25T03:06:03.287Z,13.10
2022-10-25T03:08:32.986Z,13.00
2022-10-25T03:11:01.154Z,13.00
2022-10-25T03:13:29.173Z,13.00
2022-10-25T03:15:57.148Z,13.10
2022-10-25T03:18:25.309Z,13.10
2022-10-25T03:20:53.615Z,13.00
2022-10-25T03:23:21.717Z,12.90
2022-10-25T03:25:54.407Z,12.80
2022-10-25T03:28:22.857Z,12.90
2022-10-25T03:30:51.074Z,12.90
2022-10-25T03:33:19.154Z,12.80
2022-10-25T03:35:50.309Z,12.80
2022-10-25T03:38:18.500Z,12.80
2022-10-25T03:40:46.699Z,12.80
2022-10-25T03:43:16.268Z,12.90
2022-10-25T03:45:44.334Z,12.80
2022-10-25T03:48:12.399Z,12.80
2022-10-25T03:50:40.754Z,12.90
2022-10-25T03:55:38.099Z,12.70
2022-10-25T03:58:06.155Z,12.80
2022-10-25T04:00:35.824Z,12.80
2022-10-25T04:03:04.242Z,12.90
2022-10-25T04:05:33.040Z,13.00
2022-10-25T04:08:01.438Z,12.90
2022-10-25T04:10:29.534Z,12.90
2022-10-25T04:12:57.571Z,13.10
2022-10-25T04:15:26.161Z,13.00
2022-10-25T04:17:55.607Z,13.20
2022-10-25T04:20:23.709Z,13.10
2022-10-25T04:22:56.069Z,13.00
2022-10-25T04:25:24.610Z,13.00
2022-10-25T04:27:52.792Z,13.10
2022-10-25T04:30:21.147Z,13.00
2022-10-25T04:32:49.584Z,12.90
2022-10-25T04:35:19.392Z,12.90
2022-10-25T04:37:47.449Z,12.90
2022-10-25T04:40:15.527Z,13.00
2022-10-25T04:42:43.490Z,12.90
2022-10-25T04:45:11.941Z,12.90
2022-10-25T04:47:40.023Z,12.90
2022-10-25T04:50:08.465Z,12.90
2022-10-25T04:52:37.917Z,12.90
2022-10-25T04:55:06.486Z,12.90
2022-10-25T04:57:34.510Z,12.80
2022-10-25T05:00:02.596Z,12.70
2022-10-25T05:02:30.709Z,12.70
2022-10-25T05:04:58.712Z,12.70
2022-10-25T05:07:26.769Z,12.70
2022-10-25T05:09:56.137Z,12.70
2022-10-25T05:12:24.964Z,12.70
2022-10-25T05:14:52.975Z,12.70
2022-10-25T05:17:21.022Z,12.70
2022-10-25T05:19:49.188Z,12.70
2022-10-25T05:22:17.186Z,12.60
2022-10-25T05:24:45.231Z,12.70
2022-10-25T05:27:14.740Z,12.70
2022-10-25T05:29:42.961Z,12.80
2022-10-25T05:32:10.921Z,12.90
2022-10-25T05:34:38.882Z,12.90
2022-10-25T05:37:06.927Z,12.90
2022-10-25T05:39:34.966Z,12.90
2022-10-25T05:42:06.344Z,12.90
2022-10-25T05:44:35.642Z,12.90
2022-10-25T05:47:03.671Z,13.00
2022-10-25T05:49:31.863Z,13.00
2022-10-25T05:51:59.872Z,12.90
2022-10-25T05:54:27.916Z,12.90
2022-10-25T05:56:55.962Z,12.80
2022-10-25T05:59:24.074Z,12.90
2022-10-25T06:01:53.821Z,12.70
2022-10-25T06:04:21.881Z,12.70
2022-10-25T06:06:52.134Z,12.70
2022-10-25T06:09:20.242Z,12.60
2022-10-25T06:11:48.287Z,12.60
2022-10-25T06:14:16.288Z,12.70
2022-10-25T06:16:44.293Z,12.70
2022-10-25T06:19:13.642Z,12.70
2022-10-25T06:21:41.712Z,12.60
2022-10-25T06:24:10.469Z,12.70
2022-10-25T06:26:38.461Z,12.70
2022-10-25T06:29:06.686Z,12.70
2022-10-25T06:31:34.649Z,12.80
2022-10-25T06:34:03.845Z,12.80
2022-10-25T06:36:33.281Z,12.90
2022-10-25T06:39:05.390Z,12.90
2022-10-25T06:41:36.889Z,13.00
2022-10-25T06:44:07.150Z,13.00
2022-10-25T06:46:57.845Z,13.10
2022-10-25T06:49:25.419Z,13.10
2022-10-25T06:51:54.844Z,13.10
2022-10-25T06:54:22.867Z,13.40
2022-10-25T06:56:50.810Z,13.50
2022-10-25T06:59:20.418Z,13.50
2022-10-25T07:01:48.673Z,13.80
2022-10-25T07:04:16.931Z,13.90
2022-10-25T07:06:45.008Z,14.00
2022-10-25T07:09:15.677Z,14.10
2022-10-25T07:11:45.712Z,14.20
2022-10-25T07:14:13.746Z,14.30
2022-10-25T07:16:41.757Z,14.40
2022-10-25T07:19:10.660Z,14.30
2022-10-25T07:21:41.764Z,14.20
2022-10-25T07:24:11.730Z,14.20
2022-10-25T07:26:41.810Z,14.20
2022-10-25T07:29:09.868Z,14.20
2022-10-25T07:31:41.098Z,14.20
2022-10-25T07:34:10.450Z,14.30
2022-10-25T07:36:38.561Z,14.20
2022-10-25T07:39:06.588Z,14.20
2022-10-25T07:41:34.709Z,14.10
2022-10-25T07:44:04.135Z,14.10
2022-10-25T07:46:32.181Z,14.00
2022-10-25T07:49:00.199Z,13.90
2022-10-25T07:51:28.306Z,13.90
2022-10-25T07:53:56.327Z,13.90
2022-10-25T07:56:24.272Z,13.90
2022-10-25T07:58:53.024Z,14.00
2022-10-25T08:01:24.804Z,14.00
2022-10-25T08:03:54.030Z,14.10
2022-10-25T08:06:23.019Z,14.10
2022-10-25T08:08:51.167Z,14.20
2022-10-25T08:11:19.481Z,14.30
2022-10-25T08:13:49.982Z,14.30
2022-10-25T08:16:18.014Z,14.40
2022-10-25T08:18:47.552Z,14.30
2022-10-25T08:21:15.604Z,14.50
2022-10-25T08:23:43.618Z,14.60
2022-10-25T08:26:11.740Z,14.70
2022-10-25T08:28:39.762Z,14.80
2022-10-25T08:31:08.498Z,14.90
2022-10-25T08:33:36.899Z,14.90
2022-10-25T08:36:07.084Z,15.00
2022-10-25T08:38:35.149Z,15.20
2022-10-25T08:41:10.403Z,15.20
2022-10-25T08:44:14.263Z,15.10
2022-10-25T08:46:47.317Z,15.20
2022-10-25T08:49:20.960Z,15.40
2022-10-25T08:51:51.702Z,15.50
2022-10-25T08:54:25.464Z,15.40
2022-10-25T08:57:15.412Z,15.30
2022-10-25T08:59:47.459Z,15.20
2022-10-25T09:02:21.373Z,15.20
2022-10-25T09:04:49.475Z,15.20
2022-10-25T09:07:40.679Z,15.20
2022-10-25T09:10:22.703Z,15.20
2022-10-25T09:12:57.800Z,15.20
2022-10-25T09:15:40.413Z,15.40
2022-10-25T09:18:16.497Z,15.30
2022-10-25T09:20:53.688Z,15.50
2022-10-25T09:23:27.950Z,15.60
2022-10-25T09:26:03.981Z,15.70
2022-10-25T09:28:48.774Z,15.80
2022-10-25T09:31:23.282Z,15.90
2022-10-25T09:33:57.737Z,16.00
2022-10-25T09:36:32.912Z,15.90
2022-10-25T09:39:03.188Z,15.90
2022-10-25T09:41:36.559Z,15.80
2022-10-25T09:44:10.228Z,15.90
2022-10-25T09:46:42.996Z,16.10
2022-10-25T09:49:30.314Z,16.20
2022-10-25T09:52:06.196Z,16.30
2022-10-25T09:54:39.692Z,16.40
2022-10-25T09:57:07.812Z,16.40
2022-10-25T09:59:35.860Z,16.30
2022-10-25T10:02:04.038Z,16.20
2022-10-25T10:04:36.080Z,16.20
2022-10-25T10:07:08.963Z,16.20
2022-10-25T10:09:45.769Z,16.20
2022-10-25T10:12:23.184Z,16.20
2022-10-25T10:14:58.121Z,16.20
2022-10-25T10:17:28.148Z,16.10
2022-10-25T10:20:12.502Z,16.00
2022-10-25T10:22:46.837Z,16.20
2022-10-25T10:25:19.140Z,16.20
2022-10-25T10:27:49.523Z,16.30
2022-10-25T10:30:24.577Z,16.20
2022-10-25T10:32:58.635Z,16.10
2022-10-25T10:35:30.771Z,16.10
2022-10-25T10:38:23.659Z,16.30
2022-10-25T10:40:53.817Z,16.30
2022-10-25T10:43:39.675Z,16.30
2022-10-25T10:46:14.508Z,16.20
2022-10-25T10:48:44.818Z,16.10
2022-10-25T10:51:38.858Z,16.00
2022-10-25T10:54:24.550Z,16.10
2022-10-25T10:56:57.893Z,16.00
2022-10-25T10:59:39.316Z,16.00
2022-10-25T11:02:26.279Z,16.00
2022-10-25T11:04:56.152Z,16.00
2022-10-25T11:07:35.906Z,16.10
2022-10-25T11:10:22.451Z,16.30
2022-10-25T11:13:10.547Z,16.60
2022-10-25T11:16:03.140Z,16.70
2022-10-25T11:18:40.780Z,16.90
2022-10-25T11:21:19.610Z,17.00
2022-10-25T11:23:58.354Z,17.40
2022-10-25T11:26:36.449Z,17.90
2022-10-25T11:29:10.927Z,18.20
2022-10-25T11:31:58.490Z,18.60
2022-10-25T11:34:37.721Z,18.80
2022-10-25T11:37:18.098Z,18.50
2022-10-25T11:39:51.549Z,18.30
2022-10-25T11:42:54.636Z,18.30
2022-10-25T11:45:41.836Z,18.50
2022-10-25T11:48:25.009Z,18.60
2022-10-25T11:51:01.283Z,18.70
2022-10-25T11:53:44.173Z,18.50
2022-10-25T11:56:20.396Z,18.00
2022-10-25T11:58:58.636Z,17.60
2022-10-25T12:01:41.481Z,17.40
2022-10-25T12:04:32.770Z,17.10
2022-10-25T12:07:09.509Z,16.90
2022-10-25T12:09:50.357Z,16.80
2022-10-25T12:12:23.185Z,16.70
2022-10-25T12:14:59.357Z,16.70
2022-10-25T12:17:29.808Z,16.60
2022-10-25T12:20:00.276Z,16.50
2022-10-25T12:22:32.074Z,16.50
2022-10-25T12:25:02.335Z,16.50
2022-10-25T12:27:31.462Z,16.60
2022-10-25T12:30:04.967Z,16.70
2022-10-25T12:32:39.659Z,16.80
2022-10-25T12:35:19.827Z,16.90
2022-10-25T12:37:56.482Z,17.00
2022-10-25T12:40:29.102Z,17.10
2022-10-25T12:43:01.119Z,17.10
2022-10-25T12:45:58.636Z,17.10
2022-10-25T12:48:49.139Z,17.10
2022-10-25T12:51:32.954Z,17.10
2022-10-25T12:54:32.043Z,17.30
2022-10-25T12:57:07.908Z,17.70
2022-10-25T12:59:50.283Z,17.90
2022-10-25T13:02:43.655Z,17.80
2022-10-25T13:05:33.917Z,17.60
2022-10-25T13:08:05.200Z,17.30
2022-10-25T13:10:36.956Z,17.00
2022-10-25T13:13:07.905Z,16.80
2022-10-25T13:15:42.936Z,16.70
2022-10-25T13:18:28.932Z,16.60
2022-10-25T13:20:56.970Z,16.40
2022-10-25T13:24:02.797Z,16.30
2022-10-25T13:27:02.917Z,16.10
2022-10-25T13:30:02.420Z,16.10
2022-10-25T13:32:31.785Z,16.20
2022-10-25T13:35:03.660Z,16.30
2022-10-25T13:37:54.021Z,16.20
2022-10-25T13:40:25.751Z,16.20
2022-10-25T13:43:05.383Z,16.30
2022-10-25T13:45:38.911Z,16.30
2022-10-25T13:48:18.973Z,16.40
2022-10-25T13:50:55.068Z,16.40
2022-10-25T13:53:26.046Z,16.50
2022-10-25T13:56:06.184Z,16.50
2022-10-25T13:58:49.559Z,16.50
2022-10-25T14:01:59.655Z,16.40
2022-10-25T14:04:40.697Z,16.40
2022-10-25T14:07:45.029Z,16.40
2022-10-25T14:10:34.157Z,16.30
2022-10-25T14:13:15.749Z,16.10
2022-10-25T14:15:50.380Z,16.00
2022-10-25T14:18:22.418Z,15.90
2022-10-25T14:20:54.753Z,15.70
2022-10-25T14:23:25.799Z,15.60
2022-10-25T14:25:57.513Z,15.50
2022-10-25T14:28:28.034Z,15.30
2022-10-25T14:30:57.687Z,15.20
2022-10-25T14:33:28.543Z,15.20
2022-10-25T14:35:59.109Z,15.10
2022-10-25T14:38:29.184Z,15.10
2022-10-25T14:40:59.086Z,15.00
2022-10-25T14:43:29.999Z,15.00
2022-10-25T14:46:14.332Z,15.10
2022-10-25T14:48:45.194Z,15.00
2022-10-25T14:51:19.562Z,15.00
2022-10-25T14:53:54.161Z,15.00
2022-10-25T14:56:26.977Z,15.00
2022-10-25T14:58:56.235Z,14.90
2022-10-25T15:01:24.872Z,14.80
2022-10-25T15:03:57.043Z,14.90
2022-10-25T15:06:27.813Z,14.80
2022-10-25T15:09:22.954Z,14.80
2022-10-25T15:12:05.989Z,14.80
2022-10-25T15:14:34.740Z,14.70
2022-10-25T15:17:03.309Z,14.70
2022-10-25T15:19:31.274Z,14.60
2022-10-25T15:22:07.968Z,14.70
2022-10-25T15:24:46.945Z,14.60
2022-10-25T15:27:28.565Z,14.60
2022-10-25T15:29:57.473Z,14.50
2022-10-25T15:32:27.654Z,14.50
2022-10-25T15:34:58.145Z,14.50
2022-10-25T15:37:27.999Z,14.40
2022-10-25T15:39:58.248Z,14.40
2022-10-25T15:42:27.565Z,14.40
2022-10-25T15:44:55.522Z,14.30
2022-10-25T15:47:33.027Z,14.30
2022-10-25T15:50:03.040Z,14.30
2022-10-25T15:52:31.093Z,14.30
2022-10-25T15:55:00.582Z,14.30
2022-10-25T15:57:28.543Z,14.40
2022-10-25T15:59:56.501Z,14.40
2022-10-25T16:02:28.415Z,14.50
2022-10-25T16:04:56.551Z,14.30
2022-10-25T16:07:24.520Z,14.40
2022-10-25T16:09:52.498Z,14.30
2022-10-25T16:12:28.390Z,14.40
2022-10-25T16:14:56.541Z,14.40
2022-10-25T16:17:24.574Z,14.30
2022-10-25T16:19:52.525Z,14.30
2022-10-25T16:22:20.501Z,14.20
2022-10-25T16:24:48.562Z,14.20
2022-10-25T16:27:16.513Z,14.20
2022-10-25T16:29:52.026Z,14.20
2022-10-25T16:32:24.771Z,14.10
2022-10-25T16:55:14.629Z,13.90
2022-10-25T16:57:42.598Z,13.90
2022-10-25T17:00:11.882Z,13.90
2022-10-25T17:02:42.427Z,13.80
2022-10-25T17:05:18.358Z,13.80
2022-10-25T17:07:46.517Z,13.80
2022-10-25T17:10:15.047Z,13.80
2022-10-25T17:12:45.121Z,13.80
2022-10-25T17:15:13.740Z,13.80
2022-10-25T17:17:45.506Z,13.80
2022-10-25T17:20:15.554Z,13.80
2022-10-25T17:22:44.124Z,13.80
2022-10-25T17:25:13.267Z,13.70
2022-10-25T17:27:47.400Z,13.70
2022-10-25T17:30:17.111Z,13.70
2022-10-25T17:32:46.886Z,13.70
2022-10-25T17:35:14.883Z,13.70
2022-10-25T17:37:44.439Z,13.70
2022-10-25T17:40:14.668Z,13.70
2022-10-25T17:42:42.584Z,13.70
2022-10-25T17:45:11.435Z,13.70
2022-10-25T17:47:42.518Z,13.70
2022-10-25T17:50:13.811Z,13.70
2022-10-25T17:52:42.337Z,13.70
2022-10-25T17:55:11.723Z,13.60
2022-10-25T17:57:39.751Z,13.70
2022-10-25T18:00:09.041Z,13.70
2022-10-25T18:02:50.421Z,13.70
2022-10-25T18:05:21.241Z,13.70
2022-10-25T18:07:50.232Z,13.70
2022-10-25T18:10:18.534Z,13.70
2022-10-25T18:12:47.113Z,13.70
2022-10-25T18:15:15.559Z,13.70
2022-10-25T18:17:46.463Z,13.70
2022-10-25T18:20:15.459Z,13.70
2022-10-25T18:22:44.985Z,13.60
2022-10-25T18:25:12.958Z,13.60
2022-10-25T18:27:41.079Z,13.60
2022-10-25T18:30:10.562Z,13.50
2022-10-25T18:32:38.682Z,13.60
2022-10-25T18:35:07.276Z,13.60
2022-10-25T18:37:35.603Z,13.50
2022-10-25T18:40:05.690Z,13.50
2022-10-25T18:42:35.336Z,13.60
2022-10-25T18:45:05.575Z,13.50
2022-10-25T18:47:33.826Z,13.50
2022-10-25T18:50:01.908Z,13.60
2022-10-25T18:52:29.878Z,13.50
2022-10-25T18:54:57.788Z,13.50
2022-10-25T18:57:27.212Z,13.60
2022-10-25T18:59:55.323Z,13.60
2022-10-25T19:02:23.725Z,13.50
2022-10-25T19:04:52.066Z,13.50
2022-10-25T19:07:20.294Z,13.50
2022-10-25T19:09:48.544Z,13.50
2022-10-25T19:12:16.765Z,13.50
2022-10-25T19:17:16.101Z,13.40
2022-10-25T19:19:44.315Z,13.40
2022-10-25T19:22:15.008Z,13.40
2022-10-25T19:24:43.206Z,13.40
2022-10-25T19:27:11.613Z,13.30
2022-10-25T19:29:40.378Z,13.30
2022-10-25T19:32:10.038Z,13.30
2022-10-25T19:34:38.340Z,13.30
2022-10-25T19:37:08.933Z,13.30
2022-10-25T19:39:37.941Z,13.30
2022-10-25T19:42:06.313Z,13.30
2022-10-25T19:44:34.482Z,13.40
2022-10-25T19:47:02.616Z,13.40
2022-10-25T19:49:32.114Z,13.30
2022-10-25T19:52:00.256Z,13.30
2022-10-25T19:54:28.194Z,13.30
2022-10-25T19:56:56.115Z,13.30
2022-10-25T19:59:24.043Z,13.20
2022-10-25T20:01:52.138Z,13.20
2022-10-25T20:04:20.205Z,13.20
2022-10-25T20:06:49.522Z,13.20
2022-10-25T20:09:17.643Z,13.20
2022-10-25T20:11:46.324Z,13.20
2022-10-25T20:14:14.277Z,13.20
2022-10-25T20:16:42.429Z,13.20
2022-10-25T20:19:13.693Z,13.20
2022-10-25T20:21:42.060Z,13.20
2022-10-25T20:24:11.519Z,13.20
2022-10-25T20:26:41.119Z,13.20
2022-10-25T20:29:17.144Z,13.20
2022-10-25T20:31:48.289Z,13.20
2022-10-25T20:34:16.460Z,13.20
2022-10-25T20:36:44.500Z,13.10
2022-10-25T20:39:14.902Z,13.10
2022-10-25T20:41:42.860Z,13.00
2022-10-25T20:44:11.287Z,13.00
2022-10-25T20:46:39.298Z,13.00
2022-10-25T20:49:07.537Z,12.90
2022-10-25T20:51:35.850Z,12.90
2022-10-25T20:54:09.348Z,12.90
2022-10-25T20:56:39.697Z,12.90
2022-10-25T20:59:08.514Z,12.90
2022-10-25T21:01:36.807Z,12.80
2022-10-25T21:04:04.995Z,12.80
2022-10-25T21:06:32.875Z,12.80
2022-10-25T21:09:00.788Z,12.80
2022-10-25T21:11:29.140Z,12.80
2022-10-25T21:13:58.400Z,12.80
2022-10-25T21:16:26.315Z,12.80
2022-10-25T21:18:54.234Z,12.80
2022-10-25T21:21:22.203Z,12.80
2022-10-25T21:23:57.076Z,12.80
2022-10-25T21:26:25.024Z,12.90
2022-10-25T21:28:53.036Z,12.80
2022-10-25T21:31:22.414Z,12.80
2022-10-25T21:33:53.187Z,12.90
2022-10-25T21:36:22.431Z,12.90
2022-10-25T21:38:50.610Z,12.90
2022-10-25T21:41:20.588Z,12.80
2022-10-25T21:43:50.598Z,12.90
2022-10-25T21:46:19.833Z,12.80
2022-10-25T21:48:50.657Z,12.80
2022-10-25T21:51:19.262Z,12.80
2022-10-25T21:53:47.357Z,12.80
2022-10-25T21:56:16.853Z,12.80
2022-10-25T21:58:46.553Z,12.80
2022-10-25T22:01:16.385Z,12.70
2022-10-25T22:03:44.806Z,12.80
2022-10-25T22:06:16.101Z,12.70
2022-10-25T22:08:45.089Z,12.70
2022-10-25T22:11:16.424Z,12.70
2022-10-25T22:13:45.031Z,12.80
2022-10-25T22:16:15.977Z,12.70
2022-10-25T22:18:44.384Z,12.70
2022-10-25T22:21:14.018Z,12.70
2022-10-25T22:23:41.972Z,12.70
2022-10-25T22:26:12.043Z,12.80
2022-10-25T22:28:41.266Z,12.70
2022-10-25T22:31:11.582Z,12.70
2022-10-25T22:33:40.204Z,12.70
2022-10-25T22:36:10.018Z,12.60
2022-10-25T22:38:39.706Z,12.50
2022-10-25T22:41:10.499Z,12.50
2022-10-25T22:43:39.666Z,12.40
2022-10-25T22:46:09.706Z,12.30
2022-10-25T22:48:39.385Z,12.30
2022-10-25T22:51:08.105Z,12.20
2022-10-25T22:53:37.215Z,12.10
2022-10-25T22:56:08.660Z,12.10
2022-10-25T22:58:38.238Z,12.00
2022-10-25T23:01:08.034Z,11.90
2022-10-25T23:03:37.428Z,11.90
2022-10-25T23:06:06.750Z,11.80
2022-10-25T23:08:35.016Z,11.80
2022-10-25T23:11:04.597Z,11.80
2022-10-25T23:13:35.451Z,11.80
2022-10-25T23:16:04.502Z,11.80
2022-10-25T23:18:33.413Z,11.80
2022-10-25T23:21:02.752Z,11.80
2022-10-25T23:23:35.079Z,11.80
2022-10-25T23:26:03.471Z,11.90
2022-10-25T23:28:33.757Z,11.80
2022-10-25T23:31:06.336Z,11.80
2022-10-25T23:33:34.400Z,11.80
2022-10-25T23:36:03.758Z,11.80
2022-10-25T23:38:31.996Z,11.80
2022-10-25T23:40:59.949Z,11.80
2022-10-25T23:43:28.463Z,11.80
2022-10-25T23:45:57.820Z,11.90
2022-10-25T23:48:26.094Z,11.90
2022-10-25T23:50:58.410Z,11.80
2022-10-25T23:53:27.177Z,11.80
2022-10-25T23:55:56.072Z,11.80
2022-10-25T23:58:24.771Z,11.90
